sensor_id;sensor_type;location;lat;lon;timestamp;temperature;humidity
52531;DHT22;38441;52.894;6.040;2022-08-03T00:01:30;21.30;99.90
52531;DHT22;38441;52.894;6.040;2022-08-03T00:03:56;21.20;99.90
52531;DHT22;38441;52.894;6.040;2022-08-03T00:06:22;21.90;99.90
52531;DHT22;38441;52.894;6.040;2022-08-03T00:08:48;19.60;99.90
52531;DHT22;38441;52.894;6.040;2022-08-03T00:11:13;20.70;99.90
52531;DHT22;38441;52.894;6.040;2022-08-03T00:13:39;19.40;99.90
52531;DHT22;38441;52.894;6.040;2022-08-03T00:16:05;21.50;99.90
52531;DHT22;38441;52.894;6.040;2022-08-03T00:18:30;21.10;99.90
52531;DHT22;38441;52.894;6.040;2022-08-03T00:20:56;21.00;99.90
52531;DHT22;38441;52.894;6.040;2022-08-03T00:23:21;19.50;99.90
52531;DHT22;38441;52.894;6.040;2022-08-03T00:25:47;20.10;99.90
52531;DHT22;38441;52.894;6.040;2022-08-03T00:28:13;21.00;99.90
52531;DHT22;38441;52.894;6.040;2022-08-03T00:30:38;21.10;99.90
52531;DHT22;38441;52.894;6.040;2022-08-03T00:33:04;21.50;99.90
52531;DHT22;38441;52.894;6.040;2022-08-03T00:35:30;19.50;99.90
52531;DHT22;38441;52.894;6.040;2022-08-03T00:37:56;21.00;99.90
52531;DHT22;38441;52.894;6.040;2022-08-03T00:40:22;20.90;99.90
52531;DHT22;38441;52.894;6.040;2022-08-03T00:45:16;18.60;99.90
52531;DHT22;38441;52.894;6.040;2022-08-03T00:47:42;20.20;99.90
52531;DHT22;38441;52.894;6.040;2022-08-03T00:50:08;19.20;99.90
52531;DHT22;38441;52.894;6.040;2022-08-03T00:52:34;19.40;99.90
52531;DHT22;38441;52.894;6.040;2022-08-03T00:55:00;21.20;99.90
52531;DHT22;38441;52.894;6.040;2022-08-03T00:57:27;19.30;99.90
52531;DHT22;38441;52.894;6.040;2022-08-03T00:59:54;20.80;99.90
52531;DHT22;38441;52.894;6.040;2022-08-03T01:02:20;21.00;99.90
52531;DHT22;38441;52.894;6.040;2022-08-03T01:04:46;19.30;99.90
52531;DHT22;38441;52.894;6.040;2022-08-03T01:07:25;19.30;99.90
52531;DHT22;38441;52.894;6.040;2022-08-03T01:10:01;19.20;99.90
52531;DHT22;38441;52.894;6.040;2022-08-03T01:12:42;19.30;99.90
52531;DHT22;38441;52.894;6.040;2022-08-03T01:15:14;18.70;99.90
52531;DHT22;38441;52.894;6.040;2022-08-03T01:18:02;19.50;99.90
52531;DHT22;38441;52.894;6.040;2022-08-03T01:20:35;19.60;99.90
52531;DHT22;38441;52.894;6.040;2022-08-03T01:25:45;21.10;99.90
52531;DHT22;38441;52.894;6.040;2022-08-03T01:28:18;19.10;99.90
52531;DHT22;38441;52.894;6.040;2022-08-03T01:30:47;20.00;99.90
52531;DHT22;38441;52.894;6.040;2022-08-03T01:33:25;19.10;99.90
52531;DHT22;38441;52.894;6.040;2022-08-03T01:36:02;19.10;99.90
52531;DHT22;38441;52.894;6.040;2022-08-03T01:38:40;19.10;99.90
52531;DHT22;38441;52.894;6.040;2022-08-03T01:41:11;18.50;99.90
52531;DHT22;38441;52.894;6.040;2022-08-03T01:43:38;21.00;99.90
52531;DHT22;38441;52.894;6.040;2022-08-03T01:46:06;18.40;99.90
52531;DHT22;38441;52.894;6.040;2022-08-03T01:48:34;19.20;99.90
52531;DHT22;38441;52.894;6.040;2022-08-03T01:51:01;20.00;99.90
52531;DHT22;38441;52.894;6.040;2022-08-03T01:53:30;19.00;99.90
52531;DHT22;38441;52.894;6.040;2022-08-03T01:55:56;20.50;99.90
52531;DHT22;38441;52.894;6.040;2022-08-03T01:58:23;21.40;99.90
52531;DHT22;38441;52.894;6.040;2022-08-03T02:00:50;17.90;99.90
52531;DHT22;38441;52.894;6.040;2022-08-03T02:03:18;21.20;99.90
52531;DHT22;38441;52.894;6.040;2022-08-03T02:05:46;19.10;99.90
52531;DHT22;38441;52.894;6.040;2022-08-03T02:08:13;19.00;99.90
52531;DHT22;38441;52.894;6.040;2022-08-03T02:10:41;19.10;99.90
52531;DHT22;38441;52.894;6.040;2022-08-03T02:13:08;19.00;99.90
52531;DHT22;38441;52.894;6.040;2022-08-03T02:15:39;20.50;99.90
52531;DHT22;38441;52.894;6.040;2022-08-03T02:18:07;20.20;99.90
52531;DHT22;38441;52.894;6.040;2022-08-03T02:20:33;21.20;99.90
52531;DHT22;38441;52.894;6.040;2022-08-03T02:23:02;20.30;99.90
52531;DHT22;38441;52.894;6.040;2022-08-03T02:25:29;18.90;99.90
52531;DHT22;38441;52.894;6.040;2022-08-03T02:28:17;18.90;99.90
52531;DHT22;38441;52.894;6.040;2022-08-03T02:30:48;19.50;99.90
52531;DHT22;38441;52.894;6.040;2022-08-03T02:33:24;20.60;99.90
52531;DHT22;38441;52.894;6.040;2022-08-03T02:35:52;19.20;99.90
52531;DHT22;38441;52.894;6.040;2022-08-03T02:38:20;18.60;99.90
52531;DHT22;38441;52.894;6.040;2022-08-03T02:40:49;19.80;99.90
52531;DHT22;38441;52.894;6.040;2022-08-03T02:43:19;18.60;99.90
52531;DHT22;38441;52.894;6.040;2022-08-03T02:45:47;20.30;99.90
52531;DHT22;38441;52.894;6.040;2022-08-03T02:48:17;20.10;99.90
52531;DHT22;38441;52.894;6.040;2022-08-03T02:50:44;20.10;99.90
52531;DHT22;38441;52.894;6.040;2022-08-03T02:53:13;19.00;99.90
52531;DHT22;38441;52.894;6.040;2022-08-03T02:55:41;20.20;99.90
52531;DHT22;38441;52.894;6.040;2022-08-03T02:58:07;18.50;99.90
52531;DHT22;38441;52.894;6.040;2022-08-03T03:00:33;18.60;99.90
52531;DHT22;38441;52.894;6.040;2022-08-03T03:03:01;17.90;99.90
52531;DHT22;38441;52.894;6.040;2022-08-03T03:05:29;18.80;99.90
52531;DHT22;38441;52.894;6.040;2022-08-03T03:07:55;18.40;99.90
52531;DHT22;38441;52.894;6.040;2022-08-03T03:10:21;20.10;99.90
52531;DHT22;38441;52.894;6.040;2022-08-03T03:12:49;19.10;99.90
52531;DHT22;38441;52.894;6.040;2022-08-03T03:15:16;18.50;99.90
52531;DHT22;38441;52.894;6.040;2022-08-03T03:17:42;18.30;99.90
52531;DHT22;38441;52.894;6.040;2022-08-03T03:20:08;19.40;99.90
52531;DHT22;38441;52.894;6.040;2022-08-03T03:22:35;18.40;99.90
52531;DHT22;38441;52.894;6.040;2022-08-03T03:25:01;19.00;99.90
52531;DHT22;38441;52.894;6.040;2022-08-03T03:27:27;18.30;99.90
52531;DHT22;38441;52.894;6.040;2022-08-03T03:29:53;17.80;99.90
52531;DHT22;38441;52.894;6.040;2022-08-03T03:32:18;19.40;99.90
52531;DHT22;38441;52.894;6.040;2022-08-03T03:34:44;19.80;99.90
52531;DHT22;38441;52.894;6.040;2022-08-03T03:37:10;20.00;99.90
52531;DHT22;38441;52.894;6.040;2022-08-03T03:39:36;19.90;99.90
52531;DHT22;38441;52.894;6.040;2022-08-03T03:42:02;18.50;99.90
52531;DHT22;38441;52.894;6.040;2022-08-03T03:44:29;18.40;99.90
52531;DHT22;38441;52.894;6.040;2022-08-03T03:46:56;17.80;99.90
52531;DHT22;38441;52.894;6.040;2022-08-03T03:49:22;20.10;99.90
52531;DHT22;38441;52.894;6.040;2022-08-03T03:51:51;20.30;99.90
52531;DHT22;38441;52.894;6.040;2022-08-03T03:54:16;18.30;99.90
52531;DHT22;38441;52.894;6.040;2022-08-03T03:56:42;18.40;99.90
52531;DHT22;38441;52.894;6.040;2022-08-03T03:59:07;19.90;99.90
52531;DHT22;38441;52.894;6.040;2022-08-03T04:01:33;18.30;99.90
52531;DHT22;38441;52.894;6.040;2022-08-03T04:03:59;18.40;99.90
52531;DHT22;38441;52.894;6.040;2022-08-03T04:06:44;20.40;99.90
52531;DHT22;38441;52.894;6.040;2022-08-03T04:09:29;17.20;99.90
52531;DHT22;38441;52.894;6.040;2022-08-03T04:12:15;19.90;99.90
52531;DHT22;38441;52.894;6.040;2022-08-03T04:14:42;18.10;99.90
52531;DHT22;38441;52.894;6.040;2022-08-03T04:17:08;18.20;99.90
52531;DHT22;38441;52.894;6.040;2022-08-03T04:19:40;16.80;99.90
52531;DHT22;38441;52.894;6.040;2022-08-03T04:22:10;18.00;99.90
52531;DHT22;38441;52.894;6.040;2022-08-03T04:24:43;18.10;99.90
52531;DHT22;38441;52.894;6.040;2022-08-03T04:27:12;20.10;99.90
52531;DHT22;38441;52.894;6.040;2022-08-03T04:29:41;18.10;99.90
52531;DHT22;38441;52.894;6.040;2022-08-03T04:32:08;18.10;99.90
52531;DHT22;38441;52.894;6.040;2022-08-03T04:34:34;18.00;99.90
52531;DHT22;38441;52.894;6.040;2022-08-03T04:37:04;20.20;99.90
52531;DHT22;38441;52.894;6.040;2022-08-03T04:39:34;18.00;99.90
52531;DHT22;38441;52.894;6.040;2022-08-03T04:42:06;18.00;99.90
52531;DHT22;38441;52.894;6.040;2022-08-03T04:44:38;18.40;99.90
52531;DHT22;38441;52.894;6.040;2022-08-03T04:47:05;18.00;99.90
52531;DHT22;38441;52.894;6.040;2022-08-03T04:49:31;20.00;99.90
52531;DHT22;38441;52.894;6.040;2022-08-03T04:51:57;15.80;99.90
52531;DHT22;38441;52.894;6.040;2022-08-03T04:54:23;17.20;99.90
52531;DHT22;38441;52.894;6.040;2022-08-03T04:56:48;18.70;99.90
52531;DHT22;38441;52.894;6.040;2022-08-03T04:59:14;19.20;99.90
52531;DHT22;38441;52.894;6.040;2022-08-03T05:01:43;19.60;99.90
52531;DHT22;38441;52.894;6.040;2022-08-03T05:04:08;19.10;99.90
52531;DHT22;38441;52.894;6.040;2022-08-03T05:06:34;19.10;99.90
52531;DHT22;38441;52.894;6.040;2022-08-03T05:09:00;19.80;99.90
52531;DHT22;38441;52.894;6.040;2022-08-03T05:11:26;17.70;99.90
52531;DHT22;38441;52.894;6.040;2022-08-03T05:13:51;18.40;99.90
52531;DHT22;38441;52.894;6.040;2022-08-03T05:16:17;19.80;99.90
52531;DHT22;38441;52.894;6.040;2022-08-03T05:18:43;17.00;99.90
52531;DHT22;38441;52.894;6.040;2022-08-03T05:21:10;19.50;99.90
52531;DHT22;38441;52.894;6.040;2022-08-03T05:23:38;20.50;99.90
52531;DHT22;38441;52.894;6.040;2022-08-03T05:26:03;18.40;99.90
52531;DHT22;38441;52.894;6.040;2022-08-03T05:28:29;19.70;99.90
52531;DHT22;38441;52.894;6.040;2022-08-03T05:30:55;16.90;99.90
52531;DHT22;38441;52.894;6.040;2022-08-03T05:33:21;20.30;99.90
52531;DHT22;38441;52.894;6.040;2022-08-03T05:35:46;21.00;99.90
52531;DHT22;38441;52.894;6.040;2022-08-03T05:38:12;18.70;99.90
52531;DHT22;38441;52.894;6.040;2022-08-03T05:40:37;19.80;99.90
52531;DHT22;38441;52.894;6.040;2022-08-03T05:43:03;19.40;99.90
52531;DHT22;38441;52.894;6.040;2022-08-03T05:45:29;19.50;99.90
52531;DHT22;38441;52.894;6.040;2022-08-03T05:47:54;21.40;99.90
52531;DHT22;38441;52.894;6.040;2022-08-03T05:50:20;18.70;99.90
52531;DHT22;38441;52.894;6.040;2022-08-03T05:52:46;18.60;99.90
52531;DHT22;38441;52.894;6.040;2022-08-03T05:55:12;20.20;99.90
52531;DHT22;38441;52.894;6.040;2022-08-03T05:57:39;20.20;99.90
52531;DHT22;38441;52.894;6.040;2022-08-03T06:00:09;21.10;99.90
52531;DHT22;38441;52.894;6.040;2022-08-03T06:02:35;19.10;99.90
52531;DHT22;38441;52.894;6.040;2022-08-03T06:05:01;19.10;99.90
52531;DHT22;38441;52.894;6.040;2022-08-03T06:07:27;21.00;99.90
52531;DHT22;38441;52.894;6.040;2022-08-03T06:09:53;19.50;99.90
52531;DHT22;38441;52.894;6.040;2022-08-03T06:12:18;19.20;99.90
52531;DHT22;38441;52.894;6.040;2022-08-03T06:14:44;20.70;99.90
52531;DHT22;38441;52.894;6.040;2022-08-03T06:17:10;20.60;99.90
52531;DHT22;38441;52.894;6.040;2022-08-03T06:19:35;19.40;99.90
52531;DHT22;38441;52.894;6.040;2022-08-03T06:22:01;20.70;99.90
52531;DHT22;38441;52.894;6.040;2022-08-03T06:24:27;20.30;99.90
52531;DHT22;38441;52.894;6.040;2022-08-03T06:26:53;20.70;99.90
52531;DHT22;38441;52.894;6.040;2022-08-03T06:29:19;19.50;99.90
52531;DHT22;38441;52.894;6.040;2022-08-03T06:31:44;19.80;99.90
52531;DHT22;38441;52.894;6.040;2022-08-03T06:34:10;19.60;99.90
52531;DHT22;38441;52.894;6.040;2022-08-03T06:36:38;21.60;99.90
52531;DHT22;38441;52.894;6.040;2022-08-03T06:39:04;20.40;99.90
52531;DHT22;38441;52.894;6.040;2022-08-03T06:41:29;19.90;99.90
52531;DHT22;38441;52.894;6.040;2022-08-03T06:43:55;21.50;99.90
52531;DHT22;38441;52.894;6.040;2022-08-03T06:46:21;21.30;99.90
52531;DHT22;38441;52.894;6.040;2022-08-03T06:48:47;20.60;99.90
52531;DHT22;38441;52.894;6.040;2022-08-03T06:51:12;21.30;99.90
52531;DHT22;38441;52.894;6.040;2022-08-03T06:53:38;20.30;99.90
52531;DHT22;38441;52.894;6.040;2022-08-03T06:56:04;22.00;99.90
52531;DHT22;38441;52.894;6.040;2022-08-03T06:58:30;19.90;99.90
52531;DHT22;38441;52.894;6.040;2022-08-03T07:00:56;21.90;99.90
52531;DHT22;38441;52.894;6.040;2022-08-03T07:03:21;20.20;99.90
52531;DHT22;38441;52.894;6.040;2022-08-03T07:05:47;21.80;99.90
52531;DHT22;38441;52.894;6.040;2022-08-03T07:08:14;20.20;99.90
52531;DHT22;38441;52.894;6.040;2022-08-03T07:10:39;21.50;99.90
52531;DHT22;38441;52.894;6.040;2022-08-03T07:13:05;20.80;99.90
52531;DHT22;38441;52.894;6.040;2022-08-03T07:15:31;21.00;99.90
52531;DHT22;38441;52.894;6.040;2022-08-03T07:17:57;20.80;99.90
52531;DHT22;38441;52.894;6.040;2022-08-03T07:20:23;22.20;99.90
52531;DHT22;38441;52.894;6.040;2022-08-03T07:22:48;22.30;99.90
52531;DHT22;38441;52.894;6.040;2022-08-03T07:25:14;22.00;99.90
52531;DHT22;38441;52.894;6.040;2022-08-03T07:27:47;22.50;99.90
52531;DHT22;38441;52.894;6.040;2022-08-03T07:30:14;22.80;99.90
52531;DHT22;38441;52.894;6.040;2022-08-03T07:32:40;22.40;99.90
52531;DHT22;38441;52.894;6.040;2022-08-03T07:35:07;22.30;99.90
52531;DHT22;38441;52.894;6.040;2022-08-03T07:37:33;20.80;99.90
52531;DHT22;38441;52.894;6.040;2022-08-03T07:40:00;22.20;99.90
52531;DHT22;38441;52.894;6.040;2022-08-03T07:42:27;22.60;99.90
52531;DHT22;38441;52.894;6.040;2022-08-03T07:44:53;22.80;99.90
52531;DHT22;38441;52.894;6.040;2022-08-03T07:47:22;21.20;99.90
52531;DHT22;38441;52.894;6.040;2022-08-03T07:49:49;23.00;99.90
52531;DHT22;38441;52.894;6.040;2022-08-03T07:52:14;22.40;99.90
52531;DHT22;38441;52.894;6.040;2022-08-03T07:54:58;20.70;99.90
52531;DHT22;38441;52.894;6.040;2022-08-03T07:57:24;21.80;99.90
52531;DHT22;38441;52.894;6.040;2022-08-03T07:59:50;22.00;99.90
52531;DHT22;38441;52.894;6.040;2022-08-03T08:02:15;21.00;99.90
52531;DHT22;38441;52.894;6.040;2022-08-03T08:04:41;23.90;99.90
52531;DHT22;38441;52.894;6.040;2022-08-03T08:07:06;23.70;99.90
52531;DHT22;38441;52.894;6.040;2022-08-03T08:09:32;24.10;99.90
52531;DHT22;38441;52.894;6.040;2022-08-03T08:11:58;22.40;99.90
52531;DHT22;38441;52.894;6.040;2022-08-03T08:14:24;24.10;99.90
52531;DHT22;38441;52.894;6.040;2022-08-03T08:16:49;24.10;99.90
52531;DHT22;38441;52.894;6.040;2022-08-03T08:19:15;22.80;99.90
52531;DHT22;38441;52.894;6.040;2022-08-03T08:21:42;22.90;99.90
52531;DHT22;38441;52.894;6.040;2022-08-03T08:24:08;23.10;99.90
52531;DHT22;38441;52.894;6.040;2022-08-03T08:26:34;25.50;99.90
52531;DHT22;38441;52.894;6.040;2022-08-03T08:29:00;24.20;99.90
52531;DHT22;38441;52.894;6.040;2022-08-03T08:31:25;24.60;99.90
52531;DHT22;38441;52.894;6.040;2022-08-03T08:33:51;24.80;99.90
52531;DHT22;38441;52.894;6.040;2022-08-03T08:36:16;25.20;99.90
52531;DHT22;38441;52.894;6.040;2022-08-03T08:38:43;24.70;99.90
52531;DHT22;38441;52.894;6.040;2022-08-03T08:41:10;23.50;99.90
52531;DHT22;38441;52.894;6.040;2022-08-03T08:43:36;24.40;99.90
52531;DHT22;38441;52.894;6.040;2022-08-03T08:46:02;23.30;99.90
52531;DHT22;38441;52.894;6.040;2022-08-03T08:48:28;22.50;99.90
52531;DHT22;38441;52.894;6.040;2022-08-03T08:50:55;24.00;99.90
52531;DHT22;38441;52.894;6.040;2022-08-03T08:53:24;25.50;99.90
52531;DHT22;38441;52.894;6.040;2022-08-03T08:55:51;26.70;99.90
52531;DHT22;38441;52.894;6.040;2022-08-03T08:58:18;25.30;99.90
52531;DHT22;38441;52.894;6.040;2022-08-03T09:00:45;24.60;99.90
52531;DHT22;38441;52.894;6.040;2022-08-03T09:03:13;24.00;99.90
52531;DHT22;38441;52.894;6.040;2022-08-03T09:05:41;24.20;99.90
52531;DHT22;38441;52.894;6.040;2022-08-03T09:08:07;24.30;99.90
52531;DHT22;38441;52.894;6.040;2022-08-03T09:10:33;24.20;99.90
52531;DHT22;38441;52.894;6.040;2022-08-03T09:12:59;26.40;99.90
52531;DHT22;38441;52.894;6.040;2022-08-03T09:15:30;24.30;99.90
52531;DHT22;38441;52.894;6.040;2022-08-03T09:17:58;24.30;99.90
52531;DHT22;38441;52.894;6.040;2022-08-03T09:20:26;24.70;99.90
52531;DHT22;38441;52.894;6.040;2022-08-03T09:22:57;24.60;99.90
52531;DHT22;38441;52.894;6.040;2022-08-03T09:25:34;24.60;99.90
52531;DHT22;38441;52.894;6.040;2022-08-03T09:30:30;25.90;99.90
52531;DHT22;38441;52.894;6.040;2022-08-03T09:33:04;25.50;99.90
52531;DHT22;38441;52.894;6.040;2022-08-03T09:35:30;25.10;99.90
52531;DHT22;38441;52.894;6.040;2022-08-03T09:38:16;25.20;99.90
52531;DHT22;38441;52.894;6.040;2022-08-03T09:40:43;27.80;99.90
52531;DHT22;38441;52.894;6.040;2022-08-03T09:43:10;25.40;99.90
52531;DHT22;38441;52.894;6.040;2022-08-03T09:45:37;26.60;99.90
52531;DHT22;38441;52.894;6.040;2022-08-03T09:48:25;25.80;99.90
52531;DHT22;38441;52.894;6.040;2022-08-03T09:50:55;26.10;99.90
52531;DHT22;38441;52.894;6.040;2022-08-03T09:53:22;27.50;99.90
52531;DHT22;38441;52.894;6.040;2022-08-03T09:55:58;27.20;99.90
52531;DHT22;38441;52.894;6.040;2022-08-03T09:58:26;25.80;99.90
52531;DHT22;38441;52.894;6.040;2022-08-03T10:03:19;26.60;99.90
52531;DHT22;38441;52.894;6.040;2022-08-03T10:05:44;27.80;99.90
52531;DHT22;38441;52.894;6.040;2022-08-03T10:08:15;27.20;99.90
52531;DHT22;38441;52.894;6.040;2022-08-03T10:10:43;27.70;99.90
52531;DHT22;38441;52.894;6.040;2022-08-03T10:13:17;24.80;99.90
52531;DHT22;38441;52.894;6.040;2022-08-03T10:15:45;27.50;99.90
52531;DHT22;38441;52.894;6.040;2022-08-03T10:18:11;28.00;99.90
52531;DHT22;38441;52.894;6.040;2022-08-03T10:20:45;27.30;99.90
52531;DHT22;38441;52.894;6.040;2022-08-03T10:23:13;26.50;99.90
52531;DHT22;38441;52.894;6.040;2022-08-03T10:25:42;28.40;99.90
52531;DHT22;38441;52.894;6.040;2022-08-03T10:28:12;28.60;99.90
52531;DHT22;38441;52.894;6.040;2022-08-03T10:30:40;26.80;99.90
52531;DHT22;38441;52.894;6.040;2022-08-03T10:33:20;28.40;99.90
52531;DHT22;38441;52.894;6.040;2022-08-03T10:35:49;27.50;99.90
52531;DHT22;38441;52.894;6.040;2022-08-03T10:38:19;26.50;99.90
52531;DHT22;38441;52.894;6.040;2022-08-03T10:40:45;27.30;99.90
52531;DHT22;38441;52.894;6.040;2022-08-03T10:43:20;26.70;99.90
52531;DHT22;38441;52.894;6.040;2022-08-03T10:45:47;26.80;99.90
52531;DHT22;38441;52.894;6.040;2022-08-03T10:48:13;28.40;99.90
52531;DHT22;38441;52.894;6.040;2022-08-03T10:50:39;27.10;99.90
52531;DHT22;38441;52.894;6.040;2022-08-03T10:53:07;26.90;99.90
52531;DHT22;38441;52.894;6.040;2022-08-03T10:55:34;27.40;99.90
52531;DHT22;38441;52.894;6.040;2022-08-03T11:01:06;28.00;99.90
52531;DHT22;38441;52.894;6.040;2022-08-03T11:03:33;27.80;99.90
52531;DHT22;38441;52.894;6.040;2022-08-03T11:06:19;27.40;99.90
52531;DHT22;38441;52.894;6.040;2022-08-03T11:08:49;27.30;99.90
52531;DHT22;38441;52.894;6.040;2022-08-03T11:14:09;27.40;99.90
52531;DHT22;38441;52.894;6.040;2022-08-03T11:16:46;27.70;99.90
52531;DHT22;38441;52.894;6.040;2022-08-03T11:19:19;28.20;99.90
52531;DHT22;38441;52.894;6.040;2022-08-03T11:21:53;29.30;99.90
52531;DHT22;38441;52.894;6.040;2022-08-03T11:27:15;28.00;99.90
52531;DHT22;38441;52.894;6.040;2022-08-03T11:30:10;27.90;99.90
52531;DHT22;38441;52.894;6.040;2022-08-03T11:40:46;29.90;99.90
52531;DHT22;38441;52.894;6.040;2022-08-03T11:46:05;28.50;99.90
52531;DHT22;38441;52.894;6.040;2022-08-03T11:48:36;28.50;99.90
52531;DHT22;38441;52.894;6.040;2022-08-03T11:51:04;28.10;99.90
52531;DHT22;38441;52.894;6.040;2022-08-03T11:53:30;30.40;99.90
52531;DHT22;38441;52.894;6.040;2022-08-03T11:56:01;28.50;99.90
52531;DHT22;38441;52.894;6.040;2022-08-03T11:58:28;28.60;99.90
52531;DHT22;38441;52.894;6.040;2022-08-03T12:01:04;28.50;99.90
52531;DHT22;38441;52.894;6.040;2022-08-03T12:03:34;29.50;99.90
52531;DHT22;38441;52.894;6.040;2022-08-03T12:06:00;28.30;99.90
52531;DHT22;38441;52.894;6.040;2022-08-03T12:10:53;29.50;99.90
52531;DHT22;38441;52.894;6.040;2022-08-03T12:13:22;30.00;99.90
52531;DHT22;38441;52.894;6.040;2022-08-03T12:15:56;30.70;99.90
52531;DHT22;38441;52.894;6.040;2022-08-03T12:18:24;28.90;99.90
52531;DHT22;38441;52.894;6.040;2022-08-03T12:20:51;30.40;99.90
52531;DHT22;38441;52.894;6.040;2022-08-03T12:23:18;31.10;99.90
52531;DHT22;38441;52.894;6.040;2022-08-03T12:25:45;30.20;99.90
52531;DHT22;38441;52.894;6.040;2022-08-03T12:28:16;31.00;99.90
52531;DHT22;38441;52.894;6.040;2022-08-03T12:30:49;30.40;99.90
52531;DHT22;38441;52.894;6.040;2022-08-03T12:33:25;31.10;99.90
52531;DHT22;38441;52.894;6.040;2022-08-03T12:36:04;30.10;99.90
52531;DHT22;38441;52.894;6.040;2022-08-03T12:38:31;29.00;99.90
52531;DHT22;38441;52.894;6.040;2022-08-03T12:41:04;31.60;99.90
52531;DHT22;38441;52.894;6.040;2022-08-03T12:43:31;30.40;99.90
52531;DHT22;38441;52.894;6.040;2022-08-03T12:46:11;31.50;99.90
52531;DHT22;38441;52.894;6.040;2022-08-03T12:49:15;29.00;99.90
52531;DHT22;38441;52.894;6.040;2022-08-03T12:54:28;29.50;99.90
52531;DHT22;38441;52.894;6.040;2022-08-03T12:56:57;31.70;99.90
52531;DHT22;38441;52.894;6.040;2022-08-03T12:59:32;28.80;99.90
52531;DHT22;38441;52.894;6.040;2022-08-03T13:01:59;29.20;99.90
52531;DHT22;38441;52.894;6.040;2022-08-03T13:04:30;30.50;99.90
52531;DHT22;38441;52.894;6.040;2022-08-03T13:07:01;28.40;99.90
52531;DHT22;38441;52.894;6.040;2022-08-03T13:09:28;30.50;99.90
52531;DHT22;38441;52.894;6.040;2022-08-03T13:12:24;29.90;99.90
52531;DHT22;38441;52.894;6.040;2022-08-03T13:14:53;29.20;99.90
52531;DHT22;38441;52.894;6.040;2022-08-03T13:17:19;30.70;99.90
52531;DHT22;38441;52.894;6.040;2022-08-03T13:19:46;31.20;99.90
52531;DHT22;38441;52.894;6.040;2022-08-03T13:22:19;31.20;99.90
52531;DHT22;38441;52.894;6.040;2022-08-03T13:24:46;29.40;99.90
52531;DHT22;38441;52.894;6.040;2022-08-03T13:27:12;31.00;99.90
52531;DHT22;38441;52.894;6.040;2022-08-03T13:29:38;31.60;99.90
52531;DHT22;38441;52.894;6.040;2022-08-03T13:32:05;29.50;99.90
52531;DHT22;38441;52.894;6.040;2022-08-03T13:34:31;28.90;99.90
52531;DHT22;38441;52.894;6.040;2022-08-03T13:36:57;31.10;99.90
52531;DHT22;38441;52.894;6.040;2022-08-03T13:39:22;31.00;99.90
52531;DHT22;38441;52.894;6.040;2022-08-03T13:41:48;32.00;99.90
52531;DHT22;38441;52.894;6.040;2022-08-03T13:44:14;30.90;99.90
52531;DHT22;38441;52.894;6.040;2022-08-03T13:46:40;30.20;99.90
52531;DHT22;38441;52.894;6.040;2022-08-03T13:49:06;29.70;99.90
52531;DHT22;38441;52.894;6.040;2022-08-03T13:51:33;29.30;99.90
52531;DHT22;38441;52.894;6.040;2022-08-03T13:53:59;31.30;99.90
52531;DHT22;38441;52.894;6.040;2022-08-03T13:56:25;30.80;99.90
52531;DHT22;38441;52.894;6.040;2022-08-03T13:58:51;29.90;99.90
52531;DHT22;38441;52.894;6.040;2022-08-03T14:01:17;28.60;99.90
52531;DHT22;38441;52.894;6.040;2022-08-03T14:03:42;30.30;99.90
52531;DHT22;38441;52.894;6.040;2022-08-03T14:06:08;30.40;99.90
52531;DHT22;38441;52.894;6.040;2022-08-03T14:08:34;30.10;99.90
52531;DHT22;38441;52.894;6.040;2022-08-03T14:10:59;31.50;99.90
52531;DHT22;38441;52.894;6.040;2022-08-03T14:13:25;29.00;99.90
52531;DHT22;38441;52.894;6.040;2022-08-03T14:15:51;30.80;99.90
52531;DHT22;38441;52.894;6.040;2022-08-03T14:18:20;30.10;99.90
52531;DHT22;38441;52.894;6.040;2022-08-03T14:20:45;31.50;99.90
52531;DHT22;38441;52.894;6.040;2022-08-03T14:23:11;29.00;99.90
52531;DHT22;38441;52.894;6.040;2022-08-03T14:25:37;29.90;99.90
52531;DHT22;38441;52.894;6.040;2022-08-03T14:28:03;30.80;99.90
52531;DHT22;38441;52.894;6.040;2022-08-03T14:30:30;29.30;99.90
52531;DHT22;38441;52.894;6.040;2022-08-03T14:32:55;30.10;99.90
52531;DHT22;38441;52.894;6.040;2022-08-03T14:35:21;30.00;99.90
52531;DHT22;38441;52.894;6.040;2022-08-03T14:37:47;31.10;99.90
52531;DHT22;38441;52.894;6.040;2022-08-03T14:40:12;29.00;99.90
52531;DHT22;38441;52.894;6.040;2022-08-03T14:42:38;30.10;99.90
52531;DHT22;38441;52.894;6.040;2022-08-03T14:45:04;29.20;99.90
52531;DHT22;38441;52.894;6.040;2022-08-03T14:47:30;28.60;99.90
52531;DHT22;38441;52.894;6.040;2022-08-03T14:49:56;31.00;99.90
52531;DHT22;38441;52.894;6.040;2022-08-03T14:52:21;29.30;99.90
52531;DHT22;38441;52.894;6.040;2022-08-03T14:54:47;29.00;99.90
52531;DHT22;38441;52.894;6.040;2022-08-03T14:57:12;28.70;99.90
52531;DHT22;38441;52.894;6.040;2022-08-03T14:59:38;31.00;99.90
52531;DHT22;38441;52.894;6.040;2022-08-03T15:02:04;28.90;99.90
52531;DHT22;38441;52.894;6.040;2022-08-03T15:04:29;28.90;99.90
52531;DHT22;38441;52.894;6.040;2022-08-03T15:06:55;28.90;99.80
52531;DHT22;38441;52.894;6.040;2022-08-03T15:09:20;31.00;99.90
52531;DHT22;38441;52.894;6.040;2022-08-03T15:11:46;30.50;99.90
52531;DHT22;38441;52.894;6.040;2022-08-03T15:14:12;29.20;99.90
52531;DHT22;38441;52.894;6.040;2022-08-03T15:16:38;30.20;99.90
52531;DHT22;38441;52.894;6.040;2022-08-03T15:19:05;30.40;99.90
52531;DHT22;38441;52.894;6.040;2022-08-03T15:21:30;30.80;99.90
52531;DHT22;38441;52.894;6.040;2022-08-03T15:23:56;30.80;99.90
52531;DHT22;38441;52.894;6.040;2022-08-03T15:26:22;28.90;99.90
52531;DHT22;38441;52.894;6.040;2022-08-03T15:28:48;30.80;99.90
52531;DHT22;38441;52.894;6.040;2022-08-03T15:31:14;28.60;99.90
52531;DHT22;38441;52.894;6.040;2022-08-03T15:33:39;31.00;99.90
52531;DHT22;38441;52.894;6.040;2022-08-03T15:36:05;28.80;99.90
52531;DHT22;38441;52.894;6.040;2022-08-03T15:38:31;28.60;99.90
52531;DHT22;38441;52.894;6.040;2022-08-03T15:40:56;30.60;99.90
52531;DHT22;38441;52.894;6.040;2022-08-03T15:43:23;30.60;99.90
52531;DHT22;38441;52.894;6.040;2022-08-03T15:45:49;30.60;99.90
52531;DHT22;38441;52.894;6.040;2022-08-03T15:48:15;28.50;99.90
52531;DHT22;38441;52.894;6.040;2022-08-03T15:50:40;28.80;99.90
52531;DHT22;38441;52.894;6.040;2022-08-03T15:53:06;29.50;99.90
52531;DHT22;38441;52.894;6.040;2022-08-03T15:55:32;30.50;99.90
52531;DHT22;38441;52.894;6.040;2022-08-03T15:57:58;28.10;99.90
52531;DHT22;38441;52.894;6.040;2022-08-03T16:00:23;29.60;99.90
52531;DHT22;38441;52.894;6.040;2022-08-03T16:02:49;29.10;99.90
52531;DHT22;38441;52.894;6.040;2022-08-03T16:05:14;27.70;99.90
52531;DHT22;38441;52.894;6.040;2022-08-03T16:07:40;27.80;99.90
52531;DHT22;38441;52.894;6.040;2022-08-03T16:10:14;27.70;99.90